sensor_id;sensor_type;location;lat;lon;timestamp;temperature;humidity
24744;DHT22;12844;52.110;5.548;2024-01-15T00:50:37;17.60;54.10
24744;DHT22;12844;52.110;5.548;2024-01-15T00:53:03;17.60;54.10
24744;DHT22;12844;52.110;5.548;2024-01-15T00:55:28;17.60;54.10
24744;DHT22;12844;52.110;5.548;2024-01-15T00:57:55;17.60;54.10
24744;DHT22;12844;52.110;5.548;2024-01-15T01:00:20;17.50;54.30
24744;DHT22;12844;52.110;5.548;2024-01-15T01:02:46;17.50;54.10
24744;DHT22;12844;52.110;5.548;2024-01-15T01:05:11;17.50;54.00
24744;DHT22;12844;52.110;5.548;2024-01-15T01:07:37;17.50;54.00
24744;DHT22;12844;52.110;5.548;2024-01-15T01:10:03;17.60;54.00
24744;DHT22;12844;52.110;5.548;2024-01-15T01:12:29;17.50;53.90
24744;DHT22;12844;52.110;5.548;2024-01-15T01:14:55;17.50;54.00
24744;DHT22;12844;52.110;5.548;2024-01-15T01:17:21;17.50;54.00
24744;DHT22;12844;52.110;5.548;2024-01-15T01:19:47;17.50;54.00
24744;DHT22;12844;52.110;5.548;2024-01-15T01:22:12;17.50;54.00
24744;DHT22;12844;52.110;5.548;2024-01-15T01:24:38;17.50;54.00
24744;DHT22;12844;52.110;5.548;2024-01-15T01:27:04;17.50;53.90
24744;DHT22;12844;52.110;5.548;2024-01-15T01:29:29;17.40;53.90
24744;DHT22;12844;52.110;5.548;2024-01-15T01:31:55;17.50;53.90
24744;DHT22;12844;52.110;5.548;2024-01-15T01:34:21;17.40;53.90
24744;DHT22;12844;52.110;5.548;2024-01-15T01:36:47;17.40;53.80
24744;DHT22;12844;52.110;5.548;2024-01-15T01:39:13;17.40;53.80
24744;DHT22;12844;52.110;5.548;2024-01-15T01:41:39;17.40;53.80
24744;DHT22;12844;52.110;5.548;2024-01-15T01:44:05;17.40;53.80
24744;DHT22;12844;52.110;5.548;2024-01-15T01:46:31;17.40;53.80
24744;DHT22;12844;52.110;5.548;2024-01-15T01:48:57;17.40;53.80
24744;DHT22;12844;52.110;5.548;2024-01-15T01:51:24;17.40;53.80
24744;DHT22;12844;52.110;5.548;2024-01-15T01:53:51;17.40;53.80
24744;DHT22;12844;52.110;5.548;2024-01-15T01:56:17;17.40;53.80
24744;DHT22;12844;52.110;5.548;2024-01-15T01:58:44;17.30;53.80
24744;DHT22;12844;52.110;5.548;2024-01-15T02:01:10;17.30;53.80
24744;DHT22;12844;52.110;5.548;2024-01-15T02:03:37;17.40;53.80
24744;DHT22;12844;52.110;5.548;2024-01-15T02:06:03;17.30;53.70
24744;DHT22;12844;52.110;5.548;2024-01-15T02:08:29;17.30;53.70
24744;DHT22;12844;52.110;5.548;2024-01-15T02:10:55;17.30;53.80
24744;DHT22;12844;52.110;5.548;2024-01-15T02:13:21;17.30;53.80
24744;DHT22;12844;52.110;5.548;2024-01-15T02:15:46;17.20;53.70
24744;DHT22;12844;52.110;5.548;2024-01-15T02:18:12;17.30;53.70
24744;DHT22;12844;52.110;5.548;2024-01-15T02:20:38;17.20;53.70
24744;DHT22;12844;52.110;5.548;2024-01-15T02:23:11;17.20;53.70
24744;DHT22;12844;52.110;5.548;2024-01-15T02:25:42;17.20;53.70
24744;DHT22;12844;52.110;5.548;2024-01-15T02:28:10;17.20;53.80
24744;DHT22;12844;52.110;5.548;2024-01-15T02:30:38;17.20;53.80
24744;DHT22;12844;52.110;5.548;2024-01-15T02:33:07;17.20;53.80
24744;DHT22;12844;52.110;5.548;2024-01-15T02:35:34;17.20;54.00
24744;DHT22;12844;52.110;5.548;2024-01-15T02:38:02;17.10;53.80
24744;DHT22;12844;52.110;5.548;2024-01-15T02:40:28;17.20;53.80
24744;DHT22;12844;52.110;5.548;2024-01-15T02:42:53;17.20;53.90
24744;DHT22;12844;52.110;5.548;2024-01-15T02:45:19;17.10;53.80
24744;DHT22;12844;52.110;5.548;2024-01-15T02:47:45;17.10;53.80
24744;DHT22;12844;52.110;5.548;2024-01-15T02:50:11;17.10;53.80
24744;DHT22;12844;52.110;5.548;2024-01-15T02:52:36;17.10;53.70
24744;DHT22;12844;52.110;5.548;2024-01-15T02:55:02;17.10;53.70
24744;DHT22;12844;52.110;5.548;2024-01-15T02:57:27;17.10;53.80
24744;DHT22;12844;52.110;5.548;2024-01-15T02:59:53;17.10;53.80
24744;DHT22;12844;52.110;5.548;2024-01-15T03:02:18;17.10;53.80
24744;DHT22;12844;52.110;5.548;2024-01-15T03:04:44;17.10;53.80
24744;DHT22;12844;52.110;5.548;2024-01-15T03:07:10;17.00;53.80
24744;DHT22;12844;52.110;5.548;2024-01-15T03:09:35;17.00;53.80
24744;DHT22;12844;52.110;5.548;2024-01-15T03:12:01;17.00;53.80
24744;DHT22;12844;52.110;5.548;2024-01-15T03:14:26;17.00;53.70
24744;DHT22;12844;52.110;5.548;2024-01-15T03:16:53;17.00;53.80
24744;DHT22;12844;52.110;5.548;2024-01-15T03:19:18;17.00;53.80
24744;DHT22;12844;52.110;5.548;2024-01-15T03:21:44;17.00;53.80
24744;DHT22;12844;52.110;5.548;2024-01-15T03:24:09;17.00;53.80
24744;DHT22;12844;52.110;5.548;2024-01-15T03:26:35;17.00;53.80
24744;DHT22;12844;52.110;5.548;2024-01-15T03:29:01;17.00;53.80
24744;DHT22;12844;52.110;5.548;2024-01-15T03:31:27;17.00;53.80
24744;DHT22;12844;52.110;5.548;2024-01-15T03:33:52;16.90;53.70
24744;DHT22;12844;52.110;5.548;2024-01-15T03:36:18;16.90;53.70
24744;DHT22;12844;52.110;5.548;2024-01-15T03:38:43;16.90;53.80
24744;DHT22;12844;52.110;5.548;2024-01-15T03:41:09;16.90;53.70
24744;DHT22;12844;52.110;5.548;2024-01-15T03:43:35;16.90;53.70
24744;DHT22;12844;52.110;5.548;2024-01-15T03:46:00;16.90;53.70
24744;DHT22;12844;52.110;5.548;2024-01-15T03:48:27;16.90;53.70
24744;DHT22;12844;52.110;5.548;2024-01-15T03:50:53;16.90;53.70
24744;DHT22;12844;52.110;5.548;2024-01-15T03:53:18;16.90;53.70
24744;DHT22;12844;52.110;5.548;2024-01-15T03:55:44;16.90;53.70
24744;DHT22;12844;52.110;5.548;2024-01-15T03:58:10;16.90;53.70
24744;DHT22;12844;52.110;5.548;2024-01-15T04:00:35;16.90;53.70
24744;DHT22;12844;52.110;5.548;2024-01-15T04:03:01;16.90;53.60
24744;DHT22;12844;52.110;5.548;2024-01-15T04:05:26;16.90;53.70
24744;DHT22;12844;52.110;5.548;2024-01-15T04:07:52;16.80;53.60
24744;DHT22;12844;52.110;5.548;2024-01-15T04:10:18;16.80;53.60
24744;DHT22;12844;52.110;5.548;2024-01-15T04:12:43;16.80;53.60
24744;DHT22;12844;52.110;5.548;2024-01-15T04:15:12;16.80;53.60
24744;DHT22;12844;52.110;5.548;2024-01-15T04:17:37;16.80;53.70
24744;DHT22;12844;52.110;5.548;2024-01-15T04:20:03;16.80;53.60
24744;DHT22;12844;52.110;5.548;2024-01-15T04:22:29;16.80;53.50
24744;DHT22;12844;52.110;5.548;2024-01-15T04:24:55;16.80;53.60
24744;DHT22;12844;52.110;5.548;2024-01-15T04:27:20;16.80;53.50
24744;DHT22;12844;52.110;5.548;2024-01-15T04:29:46;16.80;53.50
24744;DHT22;12844;52.110;5.548;2024-01-15T04:32:11;16.70;53.50
24744;DHT22;12844;52.110;5.548;2024-01-15T04:34:37;16.80;53.50
24744;DHT22;12844;52.110;5.548;2024-01-15T04:37:03;16.70;53.50
24744;DHT22;12844;52.110;5.548;2024-01-15T04:39:29;16.70;53.50
24744;DHT22;12844;52.110;5.548;2024-01-15T04:41:54;16.70;53.50
24744;DHT22;12844;52.110;5.548;2024-01-15T04:44:20;16.70;53.50
24744;DHT22;12844;52.110;5.548;2024-01-15T04:46:45;16.70;53.50
24744;DHT22;12844;52.110;5.548;2024-01-15T04:49:11;16.70;53.50
24744;DHT22;12844;52.110;5.548;2024-01-15T04:51:37;16.70;53.50
24744;DHT22;12844;52.110;5.548;2024-01-15T04:54:03;16.70;53.50
24744;DHT22;12844;52.110;5.548;2024-01-15T04:56:29;16.60;53.30
24744;DHT22;12844;52.110;5.548;2024-01-15T04:58:54;16.60;53.40
24744;DHT22;12844;52.110;5.548;2024-01-15T05:01:20;16.60;53.40
24744;DHT22;12844;52.110;5.548;2024-01-15T05:03:45;16.60;53.30
24744;DHT22;12844;52.110;5.548;2024-01-15T05:06:11;16.60;53.30
24744;DHT22;12844;52.110;5.548;2024-01-15T05:08:36;16.60;53.30
24744;DHT22;12844;52.110;5.548;2024-01-15T05:11:02;16.60;53.30
24744;DHT22;12844;52.110;5.548;2024-01-15T05:13:28;16.60;53.30
24744;DHT22;12844;52.110;5.548;2024-01-15T05:15:53;16.50;53.30
24744;DHT22;12844;52.110;5.548;2024-01-15T05:18:19;16.50;53.40
24744;DHT22;12844;52.110;5.548;2024-01-15T05:20:44;16.60;53.40
24744;DHT22;12844;52.110;5.548;2024-01-15T05:23:10;16.50;53.30
24744;DHT22;12844;52.110;5.548;2024-01-15T05:25:35;16.50;53.30
24744;DHT22;12844;52.110;5.548;2024-01-15T05:28:02;16.50;53.30
24744;DHT22;12844;52.110;5.548;2024-01-15T05:30:27;16.50;53.30
24744;DHT22;12844;52.110;5.548;2024-01-15T05:32:53;16.50;53.30
24744;DHT22;12844;52.110;5.548;2024-01-15T05:35:19;16.50;53.40
24744;DHT22;12844;52.110;5.548;2024-01-15T05:37:45;16.50;53.40
24744;DHT22;12844;52.110;5.548;2024-01-15T05:40:12;16.40;53.40
24744;DHT22;12844;52.110;5.548;2024-01-15T05:42:38;16.50;53.40
24744;DHT22;12844;52.110;5.548;2024-01-15T05:45:05;16.40;53.40
24744;DHT22;12844;52.110;5.548;2024-01-15T05:47:30;16.40;53.40
24744;DHT22;12844;52.110;5.548;2024-01-15T05:49:56;16.40;53.50
24744;DHT22;12844;52.110;5.548;2024-01-15T05:52:22;16.50;53.70
24744;DHT22;12844;52.110;5.548;2024-01-15T05:54:49;16.50;53.70
24744;DHT22;12844;52.110;5.548;2024-01-15T05:57:14;16.40;53.60
24744;DHT22;12844;52.110;5.548;2024-01-15T05:59:40;16.50;53.70
24744;DHT22;12844;52.110;5.548;2024-01-15T06:02:05;16.60;53.90
24744;DHT22;12844;52.110;5.548;2024-01-15T06:04:31;16.60;53.90
24744;DHT22;12844;52.110;5.548;2024-01-15T06:06:56;16.80;54.10
24744;DHT22;12844;52.110;5.548;2024-01-15T06:09:22;16.80;54.10
24744;DHT22;12844;52.110;5.548;2024-01-15T06:11:48;16.80;54.00
24744;DHT22;12844;52.110;5.548;2024-01-15T06:14:14;16.80;54.00
24744;DHT22;12844;52.110;5.548;2024-01-15T06:16:39;16.90;54.10
24744;DHT22;12844;52.110;5.548;2024-01-15T06:19:05;17.00;54.00
24744;DHT22;12844;52.110;5.548;2024-01-15T06:21:30;17.10;53.90
24744;DHT22;12844;52.110;5.548;2024-01-15T06:23:56;17.20;53.90
24744;DHT22;12844;52.110;5.548;2024-01-15T06:26:22;17.20;53.90
24744;DHT22;12844;52.110;5.548;2024-01-15T06:28:48;17.20;53.90
24744;DHT22;12844;52.110;5.548;2024-01-15T06:31:13;17.20;53.80
24744;DHT22;12844;52.110;5.548;2024-01-15T06:33:39;17.20;53.80
24744;DHT22;12844;52.110;5.548;2024-01-15T06:36:05;17.30;53.80
24744;DHT22;12844;52.110;5.548;2024-01-15T06:38:31;17.40;53.80
24744;DHT22;12844;52.110;5.548;2024-01-15T06:40:57;17.40;53.70
24744;DHT22;12844;52.110;5.548;2024-01-15T06:43:22;17.40;53.70
24744;DHT22;12844;52.110;5.548;2024-01-15T06:45:48;17.40;53.70
24744;DHT22;12844;52.110;5.548;2024-01-15T06:48:14;17.40;53.70
24744;DHT22;12844;52.110;5.548;2024-01-15T06:50:42;17.50;53.70
24744;DHT22;12844;52.110;5.548;2024-01-15T06:53:07;17.60;53.70
24744;DHT22;12844;52.110;5.548;2024-01-15T06:55:33;17.50;53.50
24744;DHT22;12844;52.110;5.548;2024-01-15T06:57:59;17.50;53.60
24744;DHT22;12844;52.110;5.548;2024-01-15T07:00:25;17.60;53.70
24744;DHT22;12844;52.110;5.548;2024-01-15T07:02:50;17.60;54.30
24744;DHT22;12844;52.110;5.548;2024-01-15T07:05:17;17.60;53.70
24744;DHT22;12844;52.110;5.548;2024-01-15T07:07:43;17.60;53.70
24744;DHT22;12844;52.110;5.548;2024-01-15T07:10:08;17.60;53.70
24744;DHT22;12844;52.110;5.548;2024-01-15T07:12:34;17.60;53.70
24744;DHT22;12844;52.110;5.548;2024-01-15T07:15:00;17.60;53.60
24744;DHT22;12844;52.110;5.548;2024-01-15T07:17:25;17.70;53.70
24744;DHT22;12844;52.110;5.548;2024-01-15T07:19:51;17.70;53.70
24744;DHT22;12844;52.110;5.548;2024-01-15T07:22:17;17.70;53.50
24744;DHT22;12844;52.110;5.548;2024-01-15T07:24:43;17.80;53.60
24744;DHT22;12844;52.110;5.548;2024-01-15T07:27:09;17.70;53.50
24744;DHT22;12844;52.110;5.548;2024-01-15T07:29:35;17.70;53.60
24744;DHT22;12844;52.110;5.548;2024-01-15T07:32:04;17.70;53.50
24744;DHT22;12844;52.110;5.548;2024-01-15T07:34:30;17.80;53.60
24744;DHT22;12844;52.110;5.548;2024-01-15T07:36:57;17.80;53.40
24744;DHT22;12844;52.110;5.548;2024-01-15T07:39:23;17.70;53.40
24744;DHT22;12844;52.110;5.548;2024-01-15T07:41:50;17.70;53.60
24744;DHT22;12844;52.110;5.548;2024-01-15T07:44:16;17.70;53.60
24744;DHT22;12844;52.110;5.548;2024-01-15T07:46:48;17.90;53.60
24744;DHT22;12844;52.110;5.548;2024-01-15T07:49:14;17.90;53.50
24744;DHT22;12844;52.110;5.548;2024-01-15T07:51:40;17.90;53.60
24744;DHT22;12844;52.110;5.548;2024-01-15T07:54:06;18.00;53.50
24744;DHT22;12844;52.110;5.548;2024-01-15T07:56:32;18.00;53.50
24744;DHT22;12844;52.110;5.548;2024-01-15T07:58:57;18.00;53.60
24744;DHT22;12844;52.110;5.548;2024-01-15T08:01:23;17.80;53.60
24744;DHT22;12844;52.110;5.548;2024-01-15T08:03:49;17.70;53.90
24744;DHT22;12844;52.110;5.548;2024-01-15T08:06:15;17.60;54.10
24744;DHT22;12844;52.110;5.548;2024-01-15T08:08:40;17.60;54.30
24744;DHT22;12844;52.110;5.548;2024-01-15T08:11:06;17.50;54.40
24744;DHT22;12844;52.110;5.548;2024-01-15T08:13:31;17.60;54.40
24744;DHT22;12844;52.110;5.548;2024-01-15T08:15:57;17.70;54.60
24744;DHT22;12844;52.110;5.548;2024-01-15T08:18:23;17.70;54.40
24744;DHT22;12844;52.110;5.548;2024-01-15T08:20:49;17.90;54.20
24744;DHT22;12844;52.110;5.548;2024-01-15T08:23:16;17.90;54.10
24744;DHT22;12844;52.110;5.548;2024-01-15T08:25:42;18.00;53.80
24744;DHT22;12844;52.110;5.548;2024-01-15T08:28:08;18.10;53.50
24744;DHT22;12844;52.110;5.548;2024-01-15T08:30:33;18.20;53.30
24744;DHT22;12844;52.110;5.548;2024-01-15T08:33:00;18.20;53.20
24744;DHT22;12844;52.110;5.548;2024-01-15T08:35:25;18.30;53.10
24744;DHT22;12844;52.110;5.548;2024-01-15T08:37:52;18.30;53.00
24744;DHT22;12844;52.110;5.548;2024-01-15T08:40:18;18.30;53.20
24744;DHT22;12844;52.110;5.548;2024-01-15T08:42:44;18.30;53.20
24744;DHT22;12844;52.110;5.548;2024-01-15T08:45:11;18.30;52.70
24744;DHT22;12844;52.110;5.548;2024-01-15T08:47:37;18.30;52.70
24744;DHT22;12844;52.110;5.548;2024-01-15T08:50:03;18.30;52.70
24744;DHT22;12844;52.110;5.548;2024-01-15T08:52:29;18.30;52.70
24744;DHT22;12844;52.110;5.548;2024-01-15T08:54:56;18.30;53.00
24744;DHT22;12844;52.110;5.548;2024-01-15T08:57:22;18.20;52.60
24744;DHT22;12844;52.110;5.548;2024-01-15T08:59:48;18.20;52.60
24744;DHT22;12844;52.110;5.548;2024-01-15T09:02:13;18.20;52.50
24744;DHT22;12844;52.110;5.548;2024-01-15T09:04:39;18.20;52.50
24744;DHT22;12844;52.110;5.548;2024-01-15T09:07:05;18.20;52.50
24744;DHT22;12844;52.110;5.548;2024-01-15T09:09:30;18.20;52.50
24744;DHT22;12844;52.110;5.548;2024-01-15T09:11:56;18.20;52.40
24744;DHT22;12844;52.110;5.548;2024-01-15T09:14:21;18.20;52.50
24744;DHT22;12844;52.110;5.548;2024-01-15T09:16:49;18.20;52.40
24744;DHT22;12844;52.110;5.548;2024-01-15T09:19:15;18.20;52.40
24744;DHT22;12844;52.110;5.548;2024-01-15T09:21:40;18.20;52.90
24744;DHT22;12844;52.110;5.548;2024-01-15T09:24:06;18.00;52.90
24744;DHT22;12844;52.110;5.548;2024-01-15T09:26:32;17.80;53.40
24744;DHT22;12844;52.110;5.548;2024-01-15T09:28:57;17.70;53.80
24744;DHT22;12844;52.110;5.548;2024-01-15T09:31:23;17.70;53.90
24744;DHT22;12844;52.110;5.548;2024-01-15T09:33:49;17.70;54.10
24744;DHT22;12844;52.110;5.548;2024-01-15T09:36:18;17.60;54.20
24744;DHT22;12844;52.110;5.548;2024-01-15T09:38:43;17.60;54.30
24744;DHT22;12844;52.110;5.548;2024-01-15T09:41:09;17.50;54.40
24744;DHT22;12844;52.110;5.548;2024-01-15T09:43:36;17.60;54.50
24744;DHT22;12844;52.110;5.548;2024-01-15T09:46:03;17.60;54.30
24744;DHT22;12844;52.110;5.548;2024-01-15T09:48:29;17.60;54.20
24744;DHT22;12844;52.110;5.548;2024-01-15T09:50:56;17.70;54.20
24744;DHT22;12844;52.110;5.548;2024-01-15T09:53:25;17.80;54.00
24744;DHT22;12844;52.110;5.548;2024-01-15T09:55:52;18.00;53.70
24744;DHT22;12844;52.110;5.548;2024-01-15T09:58:18;18.10;53.60
24744;DHT22;12844;52.110;5.548;2024-01-15T10:00:44;18.20;54.00
24744;DHT22;12844;52.110;5.548;2024-01-15T10:03:10;18.30;53.30
24744;DHT22;12844;52.110;5.548;2024-01-15T10:05:37;18.20;53.40
24744;DHT22;12844;52.110;5.548;2024-01-15T10:08:04;18.00;53.60
24744;DHT22;12844;52.110;5.548;2024-01-15T10:10:30;18.00;53.70
24744;DHT22;12844;52.110;5.548;2024-01-15T10:12:58;18.00;53.80
24744;DHT22;12844;52.110;5.548;2024-01-15T10:15:24;18.10;54.00
24744;DHT22;12844;52.110;5.548;2024-01-15T10:17:51;18.10;53.80
24744;DHT22;12844;52.110;5.548;2024-01-15T10:20:17;18.30;53.70
24744;DHT22;12844;52.110;5.548;2024-01-15T10:22:45;18.20;53.50
24744;DHT22;12844;52.110;5.548;2024-01-15T10:25:14;18.30;53.50
24744;DHT22;12844;52.110;5.548;2024-01-15T10:27:43;18.40;53.50
24744;DHT22;12844;52.110;5.548;2024-01-15T10:30:10;18.20;53.40
24744;DHT22;12844;52.110;5.548;2024-01-15T10:32:36;18.20;53.60
24744;DHT22;12844;52.110;5.548;2024-01-15T10:35:02;18.20;53.50
24744;DHT22;12844;52.110;5.548;2024-01-15T10:37:33;18.30;53.40
24744;DHT22;12844;52.110;5.548;2024-01-15T10:40:00;18.40;53.20
24744;DHT22;12844;52.110;5.548;2024-01-15T10:42:26;18.40;53.00
24744;DHT22;12844;52.110;5.548;2024-01-15T10:44:51;18.40;52.70
24744;DHT22;12844;52.110;5.548;2024-01-15T10:47:18;18.30;52.70
24744;DHT22;12844;52.110;5.548;2024-01-15T10:49:45;18.40;52.80
24744;DHT22;12844;52.110;5.548;2024-01-15T10:52:11;18.30;52.70
24744;DHT22;12844;52.110;5.548;2024-01-15T10:54:37;18.30;52.90
24744;DHT22;12844;52.110;5.548;2024-01-15T10:57:04;18.40;52.90
24744;DHT22;12844;52.110;5.548;2024-01-15T10:59:31;18.40;52.80
24744;DHT22;12844;52.110;5.548;2024-01-15T11:01:58;18.40;52.70
24744;DHT22;12844;52.110;5.548;2024-01-15T11:04:24;18.40;52.70
24744;DHT22;12844;52.110;5.548;2024-01-15T11:06:54;18.40;52.30
24744;DHT22;12844;52.110;5.548;2024-01-15T11:09:20;18.30;52.20
24744;DHT22;12844;52.110;5.548;2024-01-15T11:11:47;18.30;52.20
24744;DHT22;12844;52.110;5.548;2024-01-15T11:17:06;18.40;52.60
24744;DHT22;12844;52.110;5.548;2024-01-15T11:19:36;18.40;52.40
24744;DHT22;12844;52.110;5.548;2024-01-15T11:22:03;18.40;52.10
24744;DHT22;12844;52.110;5.548;2024-01-15T11:24:38;18.30;52.00
24744;DHT22;12844;52.110;5.548;2024-01-15T11:27:05;18.30;51.90
24744;DHT22;12844;52.110;5.548;2024-01-15T11:29:33;18.30;52.10
24744;DHT22;12844;52.110;5.548;2024-01-15T11:32:06;18.30;52.60
24744;DHT22;12844;52.110;5.548;2024-01-15T11:34:51;18.30;52.10
24744;DHT22;12844;52.110;5.548;2024-01-15T11:37:18;18.20;52.20
24744;DHT22;12844;52.110;5.548;2024-01-15T11:39:44;18.20;52.40
24744;DHT22;12844;52.110;5.548;2024-01-15T11:42:11;18.30;52.40
24744;DHT22;12844;52.110;5.548;2024-01-15T11:44:38;18.30;52.20
24744;DHT22;12844;52.110;5.548;2024-01-15T11:47:12;18.30;52.30
24744;DHT22;12844;52.110;5.548;2024-01-15T11:52:07;18.30;51.90
24744;DHT22;12844;52.110;5.548;2024-01-15T11:54:38;18.30;52.00
24744;DHT22;12844;52.110;5.548;2024-01-15T11:57:10;18.30;52.00
24744;DHT22;12844;52.110;5.548;2024-01-15T11:59:39;18.30;52.30
24744;DHT22;12844;52.110;5.548;2024-01-15T12:02:05;18.30;52.20
24744;DHT22;12844;52.110;5.548;2024-01-15T12:04:30;18.30;52.20
24744;DHT22;12844;52.110;5.548;2024-01-15T12:06:56;18.40;52.30
24744;DHT22;12844;52.110;5.548;2024-01-15T12:09:21;18.40;52.10
24744;DHT22;12844;52.110;5.548;2024-01-15T12:12:02;18.30;52.10
24744;DHT22;12844;52.110;5.548;2024-01-15T12:14:31;18.30;52.10
24744;DHT22;12844;52.110;5.548;2024-01-15T12:16:57;18.30;52.30
24744;DHT22;12844;52.110;5.548;2024-01-15T12:19:23;18.20;52.80
24744;DHT22;12844;52.110;5.548;2024-01-15T12:21:51;18.30;52.00
24744;DHT22;12844;52.110;5.548;2024-01-15T12:24:17;18.30;52.00
24744;DHT22;12844;52.110;5.548;2024-01-15T12:26:43;18.30;52.00
24744;DHT22;12844;52.110;5.548;2024-01-15T12:29:10;18.20;51.90
24744;DHT22;12844;52.110;5.548;2024-01-15T12:31:36;18.20;52.00
24744;DHT22;12844;52.110;5.548;2024-01-15T12:34:02;18.20;52.00
24744;DHT22;12844;52.110;5.548;2024-01-15T12:36:31;18.20;52.20
24744;DHT22;12844;52.110;5.548;2024-01-15T12:38:59;18.20;52.30
24744;DHT22;12844;52.110;5.548;2024-01-15T12:41:25;18.10;52.10
24744;DHT22;12844;52.110;5.548;2024-01-15T12:43:51;18.00;52.50
24744;DHT22;12844;52.110;5.548;2024-01-15T12:46:16;17.90;52.90
24744;DHT22;12844;52.110;5.548;2024-01-15T12:48:42;17.90;52.90
24744;DHT22;12844;52.110;5.548;2024-01-15T12:51:08;17.90;53.00
24744;DHT22;12844;52.110;5.548;2024-01-15T12:53:34;18.00;53.10
24744;DHT22;12844;52.110;5.548;2024-01-15T12:56:00;18.10;53.10
24744;DHT22;12844;52.110;5.548;2024-01-15T12:58:25;18.10;53.20
24744;DHT22;12844;52.110;5.548;2024-01-15T13:00:51;18.10;53.20
24744;DHT22;12844;52.110;5.548;2024-01-15T13:03:17;18.10;53.40
24744;DHT22;12844;52.110;5.548;2024-01-15T13:05:43;18.10;53.60
24744;DHT22;12844;52.110;5.548;2024-01-15T13:08:10;18.10;53.40
24744;DHT22;12844;52.110;5.548;2024-01-15T13:10:36;18.20;53.50
24744;DHT22;12844;52.110;5.548;2024-01-15T13:13:01;18.10;53.40
24744;DHT22;12844;52.110;5.548;2024-01-15T13:15:27;18.10;53.60
24744;DHT22;12844;52.110;5.548;2024-01-15T13:17:52;18.20;53.50
24744;DHT22;12844;52.110;5.548;2024-01-15T13:20:18;18.20;53.50
24744;DHT22;12844;52.110;5.548;2024-01-15T13:22:44;18.20;53.40
24744;DHT22;12844;52.110;5.548;2024-01-15T13:25:10;18.20;53.40
24744;DHT22;12844;52.110;5.548;2024-01-15T13:27:37;18.20;53.70
24744;DHT22;12844;52.110;5.548;2024-01-15T13:30:03;18.30;53.70
24744;DHT22;12844;52.110;5.548;2024-01-15T13:32:29;18.30;53.40
24744;DHT22;12844;52.110;5.548;2024-01-15T13:34:59;18.20;53.90
24744;DHT22;12844;52.110;5.548;2024-01-15T13:37:25;18.30;54.00
24744;DHT22;12844;52.110;5.548;2024-01-15T13:39:51;18.20;54.20
24744;DHT22;12844;52.110;5.548;2024-01-15T13:42:20;18.20;54.00
24744;DHT22;12844;52.110;5.548;2024-01-15T13:44:47;18.20;54.10
24744;DHT22;12844;52.110;5.548;2024-01-15T13:47:13;18.20;54.20
24744;DHT22;12844;52.110;5.548;2024-01-15T13:49:39;18.30;54.20
24744;DHT22;12844;52.110;5.548;2024-01-15T13:52:04;18.20;54.00
24744;DHT22;12844;52.110;5.548;2024-01-15T13:54:30;18.30;54.00
24744;DHT22;12844;52.110;5.548;2024-01-15T13:56:56;18.30;54.30
24744;DHT22;12844;52.110;5.548;2024-01-15T13:59:21;18.20;54.00
24744;DHT22;12844;52.110;5.548;2024-01-15T14:01:47;18.20;54.00
24744;DHT22;12844;52.110;5.548;2024-01-15T14:04:13;18.10;54.10
24744;DHT22;12844;52.110;5.548;2024-01-15T14:06:39;18.10;54.10
24744;DHT22;12844;52.110;5.548;2024-01-15T14:09:05;18.00;54.20
24744;DHT22;12844;52.110;5.548;2024-01-15T14:11:31;18.00;54.40
24744;DHT22;12844;52.110;5.548;2024-01-15T14:13:56;18.00;54.30
24744;DHT22;12844;52.110;5.548;2024-01-15T14:16:22;17.90;55.00
24744;DHT22;12844;52.110;5.548;2024-01-15T14:18:48;18.00;54.40
24744;DHT22;12844;52.110;5.548;2024-01-15T14:21:13;17.90;54.30
24744;DHT22;12844;52.110;5.548;2024-01-15T14:23:39;17.90;54.50
24744;DHT22;12844;52.110;5.548;2024-01-15T14:26:05;17.80;54.60
24744;DHT22;12844;52.110;5.548;2024-01-15T14:28:31;17.90;54.70
24744;DHT22;12844;52.110;5.548;2024-01-15T14:30:56;17.90;54.60
24744;DHT22;12844;52.110;5.548;2024-01-15T14:33:25;17.90;54.50
24744;DHT22;12844;52.110;5.548;2024-01-15T14:35:51;18.00;54.50
24744;DHT22;12844;52.110;5.548;2024-01-15T14:38:16;18.10;54.30
24744;DHT22;12844;52.110;5.548;2024-01-15T14:40:42;18.20;54.10
24744;DHT22;12844;52.110;5.548;2024-01-15T14:43:09;18.20;54.20
24744;DHT22;12844;52.110;5.548;2024-01-15T14:45:35;18.30;54.20
24744;DHT22;12844;52.110;5.548;2024-01-15T14:48:00;18.30;54.10
24744;DHT22;12844;52.110;5.548;2024-01-15T14:50:26;18.30;53.90
24744;DHT22;12844;52.110;5.548;2024-01-15T14:52:52;18.30;54.10
24744;DHT22;12844;52.110;5.548;2024-01-15T14:55:17;18.20;53.80
24744;DHT22;12844;52.110;5.548;2024-01-15T14:57:43;18.20;53.90
24744;DHT22;12844;52.110;5.548;2024-01-15T15:00:08;18.20;53.70
24744;DHT22;12844;52.110;5.548;2024-01-15T15:02:35;18.20;53.80
24744;DHT22;12844;52.110;5.548;2024-01-15T15:05:03;18.20;53.90
24744;DHT22;12844;52.110;5.548;2024-01-15T15:07:28;18.10;53.90
24744;DHT22;12844;52.110;5.548;2024-01-15T15:09:54;18.10;54.10
24744;DHT22;12844;52.110;5.548;2024-01-15T15:12:19;18.10;54.00
24744;DHT22;12844;52.110;5.548;2024-01-15T15:14:45;18.10;54.00
24744;DHT22;12844;52.110;5.548;2024-01-15T15:17:11;18.00;54.00
24744;DHT22;12844;52.110;5.548;2024-01-15T15:19:37;18.00;54.30
24744;DHT22;12844;52.110;5.548;2024-01-15T15:22:03;18.00;54.40
24744;DHT22;12844;52.110;5.548;2024-01-15T15:24:29;18.00;54.30
24744;DHT22;12844;52.110;5.548;2024-01-15T15:26:54;18.00;54.50
24744;DHT22;12844;52.110;5.548;2024-01-15T15:29:20;18.00;54.30
24744;DHT22;12844;52.110;5.548;2024-01-15T15:31:48;18.00;54.50
24744;DHT22;12844;52.110;5.548;2024-01-15T15:34:14;18.10;54.50
24744;DHT22;12844;52.110;5.548;2024-01-15T15:36:41;18.20;54.40
24744;DHT22;12844;52.110;5.548;2024-01-15T15:39:06;18.30;54.00
24744;DHT22;12844;52.110;5.548;2024-01-15T15:41:32;18.50;54.40
24744;DHT22;12844;52.110;5.548;2024-01-15T15:43:58;18.50;54.00
24744;DHT22;12844;52.110;5.548;2024-01-15T15:46:23;18.60;53.90
24744;DHT22;12844;52.110;5.548;2024-01-15T15:48:49;18.70;53.80
24744;DHT22;12844;52.110;5.548;2024-01-15T15:51:14;18.80;53.70
24744;DHT22;12844;52.110;5.548;2024-01-15T15:53:40;18.80;53.60
24744;DHT22;12844;52.110;5.548;2024-01-15T15:56:06;18.80;53.60
24744;DHT22;12844;52.110;5.548;2024-01-15T15:58:32;18.80;53.60
24744;DHT22;12844;52.110;5.548;2024-01-15T16:00:58;18.70;53.60
24744;DHT22;12844;52.110;5.548;2024-01-15T16:03:24;18.60;53.80
24744;DHT22;12844;52.110;5.548;2024-01-15T16:05:49;18.60;54.00
24744;DHT22;12844;52.110;5.548;2024-01-15T16:08:15;18.50;54.70
24744;DHT22;12844;52.110;5.548;2024-01-15T16:10:43;18.50;54.10
24744;DHT22;12844;52.110;5.548;2024-01-15T16:13:11;18.50;53.90
24744;DHT22;12844;52.110;5.548;2024-01-15T16:15:37;18.50;54.00
24744;DHT22;12844;52.110;5.548;2024-01-15T16:18:02;18.50;53.80